Time;durP1;ratioP1;P1;durP2;ratioP2;P2;SDS_P1;SDS_P2;PMS_P1;PMS_P2;Temp;Humidity;BMP_temperature;BMP_pressure;BME280_temperature;BME280_humidity;BME280_pressure;Samples;Min_cycle;Max_cycle;Signal;HPM_P1;HPM_P2
2022/11/04 05:55:41;;;;;;;1.70;0.70;;;10.90;99.90;;;;;;10338720;23;20059;-77
2022/11/04 06:00:43;;;;;;;2.50;0.77;;;10.90;99.90;;;;;;10262156;28;20093;-76
2022/11/04 06:05:44;;;;;;;4.60;1.00;;;10.90;99.90;;;;;;10292389;28;20453;-76
2022/11/04 06:10:48;;;;;;;4.28;1.40;;;10.90;99.90;;;;;;10257915;28;20083;-77
2022/11/04 06:15:49;;;;;;;2.30;0.70;;;10.90;99.90;;;;;;10256813;28;20067;-76
2022/11/04 06:21:07;;;;;;;2.55;0.90;;;11.00;99.90;;;;;;10280966;28;20063;-76
2022/11/04 06:26:12;;;;;;;3.13;1.00;;;11.00;99.90;;;;;;10258056;29;20051;-76
2022/11/04 06:31:15;;;;;;;2.22;0.70;;;11.00;99.90;;;;;;10258334;29;20058;-76
2022/11/04 06:36:18;;;;;;;2.28;0.90;;;11.10;99.90;;;;;;10257900;29;20441;-76
2022/11/04 06:41:21;;;;;;;5.78;1.00;;;11.10;99.90;;;;;;10257925;29;20448;-76
2022/11/04 06:46:30;;;;;;;3.58;0.80;;;11.10;99.90;;;;;;10257782;29;20094;-76
2022/11/04 06:51:33;;;;;;;2.80;0.82;;;11.10;99.90;;;;;;10256753;28;20106;-76
2022/11/04 06:56:36;;;;;;;2.47;1.08;;;11.00;99.90;;;;;;10257601;29;20082;-76
2022/11/04 07:01:38;;;;;;;3.42;0.90;;;10.90;99.90;;;;;;10256749;29;20441;-76
2022/11/04 07:06:42;;;;;;;2.85;1.33;;;10.90;99.90;;;;;;10256639;29;20559;-78
2022/11/04 07:11:46;;;;;;;3.03;0.90;;;10.90;99.90;;;;;;10256403;29;20133;-79
2022/11/04 07:16:50;;;;;;;2.70;1.02;;;10.80;99.90;;;;;;10256825;29;20055;-78
2022/11/04 07:21:51;;;;;;;2.75;0.82;;;10.70;99.90;;;;;;10256555;29;20051;-77
2022/11/04 07:26:55;;;;;;;5.38;1.10;;;10.80;99.90;;;;;;10255996;29;20472;-78
2022/11/04 07:31:57;;;;;;;5.75;1.15;;;10.90;99.90;;;;;;10256074;29;20051;-78
2022/11/04 07:36:59;;;;;;;2.88;0.70;;;10.80;99.90;;;;;;10255673;29;20102;-75
2022/11/04 07:42:03;;;;;;;6.32;0.90;;;10.80;99.90;;;;;;10255583;29;20555;-76
2022/11/04 07:47:05;;;;;;;2.83;1.00;;;10.90;99.90;;;;;;10255128;29;20473;-76
2022/11/04 07:52:07;;;;;;;2.60;0.82;;;10.90;99.90;;;;;;10255026;28;20077;-76
2022/11/04 07:57:10;;;;;;;4.32;1.02;;;10.90;99.90;;;;;;10254897;29;20079;-76
2022/11/04 08:02:12;;;;;;;2.17;0.90;;;11.00;99.90;;;;;;10254727;28;20039;-76
2022/11/04 08:07:14;;;;;;;4.72;1.95;;;11.00;99.90;;;;;;10265804;29;20058;-77
2022/11/04 08:12:19;;;;;;;3.33;1.60;;;11.10;99.90;;;;;;10252914;29;20129;-78
2022/11/04 08:17:21;;;;;;;4.80;1.88;;;11.20;99.90;;;;;;10254215;29;20059;-78
2022/11/04 08:22:23;;;;;;;5.65;2.40;;;11.30;99.90;;;;;;10252899;29;20052;-78
2022/11/04 08:27:26;;;;;;;4.60;2.28;;;11.30;99.90;;;;;;10252376;29;20051;-78
2022/11/04 08:32:28;;;;;;;7.15;1.90;;;11.30;99.90;;;;;;10253923;29;20600;-77
2022/11/04 08:37:30;;;;;;;5.70;1.83;;;11.30;99.90;;;;;;10253825;29;20095;-79
2022/11/04 08:42:33;;;;;;;5.45;1.92;;;11.40;99.90;;;;;;10253451;29;20051;-79
2022/11/04 08:47:35;;;;;;;3.92;1.83;;;11.40;99.90;;;;;;10252999;29;20489;-79
2022/11/04 08:52:37;;;;;;;4.60;1.83;;;11.50;99.90;;;;;;10247691;29;20103;-79
2022/11/04 08:57:40;;;;;;;3.20;1.23;;;11.60;99.90;;;;;;10280405;28;20098;-79
2022/11/04 09:02:43;;;;;;;2.78;1.20;;;11.70;99.90;;;;;;10247721;29;20057;-79
2022/11/04 09:07:45;;;;;;;3.45;1.20;;;11.70;99.90;;;;;;10247890;29;20047;-78
2022/11/04 09:12:48;;;;;;;3.38;1.02;;;11.80;99.90;;;;;;10269319;28;20086;-78
2022/11/04 09:17:50;;;;;;;2.78;0.90;;;11.90;99.90;;;;;;10257103;28;20051;-79
2022/11/04 09:22:53;;;;;;;4.45;0.98;;;12.00;99.90;;;;;;10247400;29;20067;-78
2022/11/04 09:27:56;;;;;;;2.97;1.00;;;12.00;99.90;;;;;;10246739;29;20397;-78
2022/11/04 09:32:58;;;;;;;3.65;1.00;;;12.10;99.90;;;;;;10244954;29;20055;-79
2022/11/04 09:38:00;;;;;;;2.47;0.80;;;12.20;99.90;;;;;;10247621;29;20103;-80
2022/11/04 09:43:19;;;;;;;3.33;0.90;;;12.10;99.90;;;;;;10247657;29;20138;-79
2022/11/04 09:48:27;;;;;;;3.35;1.05;;;12.20;99.90;;;;;;10247774;29;20078;-79
2022/11/04 09:53:38;;;;;;;4.53;1.20;;;12.30;99.90;;;;;;10225350;28;20651;-79
2022/11/04 09:58:47;;;;;;;5.72;1.20;;;12.50;99.90;;;;;;10194637;29;20054;-79
2022/11/04 10:04:01;;;;;;;;;;;12.60;99.90;;;;;;10172446;29;20055;-79
2022/11/04 10:09:33;;;;;;;4.35;1.30;;;12.50;99.90;;;;;;10169036;29;19934;-79
2022/11/04 10:15:09;;;;;;;3.78;1.00;;;12.70;99.90;;;;;;10208873;29;20590;-79
2022/11/04 10:20:31;;;;;;;5.72;1.20;;;12.80;99.90;;;;;;10224154;29;20453;-79
2022/11/04 10:25:46;;;;;;;2.70;0.80;;;12.90;99.90;;;;;;10210826;29;20087;-79
2022/11/04 10:30:52;;;;;;;3.70;1.17;;;12.90;99.90;;;;;;10223812;29;20051;-78
2022/11/04 10:35:57;;;;;;;3.40;0.80;;;13.00;99.90;;;;;;10221947;29;20055;-78
2022/11/04 10:41:00;;;;;;;3.97;1.17;;;13.20;99.90;;;;;;10191478;29;20114;-79
2022/11/04 10:46:20;;;;;;;5.22;1.17;;;13.30;99.90;;;;;;10174134;29;20056;-79
2022/11/04 10:51:23;;;;;;;4.88;1.00;;;13.20;99.70;;;;;;10186107;29;20066;-79
2022/11/04 10:56:34;;;;;;;5.45;1.30;;;13.20;99.10;;;;;;10288817;28;20057;-79
2022/11/04 11:01:37;;;;;;;9.35;2.70;;;13.30;99.20;;;;;;10292344;28;20054;-79
2022/11/04 11:06:40;;;;;;;4.88;1.48;;;13.30;98.80;;;;;;10292146;28;20055;-79
2022/11/04 11:11:46;;;;;;;5.70;1.25;;;13.50;98.00;;;;;;10262130;28;20059;-79
2022/11/04 11:16:49;;;;;;;5.38;0.90;;;13.50;97.10;;;;;;10252194;28;20047;-79
2022/11/04 11:21:54;;;;;;;5.95;1.45;;;13.30;96.60;;;;;;10251636;29;20047;-79
2022/11/04 11:26:58;;;;;;;6.00;1.40;;;13.30;96.20;;;;;;10251309;29;20133;-79
2022/11/04 11:32:02;;;;;;;6.00;0.98;;;13.30;96.40;;;;;;10250980;29;20153;-79
2022/11/04 11:37:04;;;;;;;6.00;1.08;;;13.30;96.30;;;;;;10248336;28;20055;-79
2022/11/04 11:42:11;;;;;;;3.10;0.80;;;13.30;96.30;;;;;;10252804;28;20051;-79
2022/11/04 11:47:22;;;;;;;5.95;1.13;;;13.30;97.10;;;;;;10251607;28;20051;-79
2022/11/04 11:52:32;;;;;;;7.78;1.08;;;13.30;97.10;;;;;;10272585;28;20102;-79
2022/11/04 11:57:45;;;;;;;3.72;1.00;;;13.30;97.40;;;;;;10290229;28;20478;-78
2022/11/04 12:02:55;;;;;;;4.75;1.30;;;13.40;97.00;;;;;;10273373;28;20489;-79
2022/11/04 12:08:12;;;;;;;6.50;1.08;;;13.40;97.50;;;;;;10289863;28;20050;-78
2022/11/04 12:13:21;;;;;;;11.50;3.63;;;13.40;97.50;;;;;;10286219;28;20058;-79
2022/11/04 12:18:51;;;;;;;8.00;1.25;;;13.50;97.10;;;;;;10209708;29;20056;-78
2022/11/04 12:24:00;;;;;;;3.75;1.17;;;13.40;97.10;;;;;;10213276;29;20094;-78
2022/11/04 12:29:29;;;;;;;6.30;1.40;;;13.40;97.30;;;;;;10246708;28;20051;-78
2022/11/04 12:34:50;;;;;;;7.30;1.30;;;13.40;97.20;;;;;;10246820;28;20485;-78
2022/11/04 12:40:12;;;;;;;4.90;1.02;;;13.40;97.60;;;;;;10247972;29;20054;-77
2022/11/04 12:45:28;;;;;;;6.30;1.42;;;13.60;97.50;;;;;;10248084;29;20063;-77
2022/11/04 12:50:59;;;;;;;6.60;1.40;;;13.60;97.00;;;;;;10247344;29;20055;-77
2022/11/04 12:56:09;;;;;;;6.50;1.30;;;13.70;97.00;;;;;;10247693;29;20458;-76
2022/11/04 13:01:18;;;;;;;6.25;1.60;;;13.80;96.30;;;;;;10247245;29;20093;-79
2022/11/04 13:06:28;;;;;;;5.85;1.15;;;13.90;96.60;;;;;;10247202;29;20528;-79
2022/11/04 13:11:36;;;;;;;6.47;1.30;;;14.10;96.30;;;;;;10247338;29;20114;-78
2022/11/04 13:16:42;;;;;;;5.88;1.40;;;14.50;96.10;;;;;;10253339;28;20078;-81
2022/11/04 13:21:45;;;;;;;5.32;1.17;;;14.90;95.50;;;;;;10284890;28;20051;-79
2022/11/04 13:26:47;;;;;;;5.55;1.00;;;15.10;94.50;;;;;;10255370;28;20096;-80
2022/11/04 13:31:56;;;;;;;8.38;1.45;;;15.40;93.90;;;;;;10247546;28;20098;-77
2022/11/04 13:37:11;;;;;;;3.50;1.00;;;17.70;91.40;;;;;;10245339;28;20548;-80
2022/11/04 13:43:36;;;;;;;4.47;1.10;;;18.40;86.40;;;;;;10265048;28;20090;-80
2022/11/04 13:48:23;;;;;;;14.77;2.40;;;19.50;79.00;;;;;;10286785;28;20089;-79
2022/11/04 13:53:44;;;;;;;3.45;1.30;;;18.10;82.90;;;;;;10270806;28;20110;-79
2022/11/04 13:58:52;;;;;;;7.03;1.65;;;19.90;78.40;;;;;;10247735;28;20059;-80
2022/11/04 14:04:14;;;;;;;4.68;1.33;;;21.80;77.30;;;;;;10254060;29;20083;-78
2022/11/04 14:10:02;;;;;;;5.50;1.50;;;21.20;73.80;;;;;;10214816;29;20055;-79
2022/11/04 14:15:15;;;;;;;6.13;1.38;;;20.60;72.40;;;;;;10244173;28;20047;-79
2022/11/04 14:20:24;;;;;;;6.32;1.70;;;19.20;73.90;;;;;;10253439;29;20086;-79
2022/11/04 14:25:37;;;;;;;8.73;2.92;;;18.30;78.40;;;;;;10269763;28;20059;-81
2022/11/04 14:30:50;;;;;;;5.95;1.35;;;17.80;80.10;;;;;;10289872;28;20094;-79
2022/11/04 14:35:55;;;;;;;6.30;1.25;;;17.20;80.60;;;;;;10260627;28;20141;-78
2022/11/04 14:41:21;;;;;;;4.57;1.10;;;16.90;82.90;;;;;;10261161;28;20128;-79
2022/11/04 14:46:28;;;;;;;5.85;1.30;;;17.20;84.70;;;;;;10263253;28;20062;-79
2022/11/04 14:51:33;;;;;;;5.30;1.30;;;17.30;83.20;;;;;;10263580;28;20468;-79
2022/11/04 14:56:36;;;;;;;4.82;1.08;;;17.00;83.80;;;;;;10269585;28;20086;-79
2022/11/04 15:01:40;;;;;;;5.55;1.20;;;16.70;85.10;;;;;;10266163;28;20424;-80
2022/11/04 15:06:42;;;;;;;5.53;1.13;;;16.30;87.40;;;;;;10266680;28;20051;-80
2022/11/04 15:17:06;;;;;;;3.20;0.85;;;15.40;93.00;;;;;;10257356;28;20413;-80
2022/11/04 15:22:08;;;;;;;5.45;1.45;;;15.00;96.00;;;;;;10253245;28;20054;-78
2022/11/04 15:27:17;;;;;;;4.75;1.20;;;14.60;97.40;;;;;;10258896;28;20051;-82
2022/11/04 15:32:19;;;;;;;5.03;1.20;;;14.40;99.40;;;;;;10255069;28;20051;-81
2022/11/04 15:37:23;;;;;;;4.03;1.00;;;14.20;99.90;;;;;;10249595;29;20055;-81
2022/11/04 15:42:41;;;;;;;5.50;2.03;;;14.20;99.90;;;;;;10250326;28;20500;-81
2022/11/04 15:47:43;;;;;;;5.85;1.25;;;14.00;99.90;;;;;;10251128;29;20114;-82
2022/11/04 15:52:51;;;;;;;3.15;0.90;;;13.70;99.90;;;;;;10252565;28;20086;-80
2022/11/04 15:57:56;;;;;;;4.18;1.17;;;13.50;99.90;;;;;;10286771;28;20054;-84
2022/11/04 16:03:00;;;;;;;3.00;1.15;;;13.40;99.90;;;;;;10266582;28;20063;-77
2022/11/04 16:08:19;;;;;;;6.00;1.30;;;13.30;99.90;;;;;;10277790;28;20074;-77
2022/11/04 16:13:24;;;;;;;3.67;1.08;;;13.20;99.90;;;;;;10266751;28;20125;-78
2022/11/04 16:18:34;;;;;;;5.32;1.50;;;12.90;99.90;;;;;;10289251;28;20051;-78
2022/11/04 16:23:44;;;;;;;4.25;1.67;;;12.70;99.90;;;;;;10286193;28;20077;-78
2022/11/04 16:28:54;;;;;;;7.03;2.10;;;12.60;99.90;;;;;;10255113;28;20051;-79
2022/11/04 16:33:56;;;;;;;6.13;2.10;;;12.60;99.90;;;;;;10246637;29;20505;-77
2022/11/04 16:39:02;;;;;;;5.50;1.83;;;12.40;99.90;;;;;;10247395;28;20051;-78
2022/11/04 16:44:14;;;;;;;6.38;2.35;;;12.20;99.90;;;;;;10248157;28;20047;-78
2022/11/04 16:49:18;;;;;;;4.85;2.42;;;12.10;99.90;;;;;;10248365;29;20055;-78
2022/11/04 16:54:20;;;;;;;5.75;2.47;;;12.10;99.90;;;;;;10247054;28;20087;-77
2022/11/04 16:59:24;;;;;;;5.78;2.53;;;11.90;99.90;;;;;;10245826;28;20046;-79
2022/11/04 17:04:28;;;;;;;5.68;2.78;;;11.90;99.90;;;;;;10255220;28;20047;-79
2022/11/04 17:09:30;;;;;;;5.43;1.92;;;11.90;99.90;;;;;;10280528;28;20496;-80
2022/11/04 17:14:33;;;;;;;3.58;1.38;;;11.90;99.90;;;;;;10275432;28;20051;-78
2022/11/04 17:19:35;;;;;;;5.28;1.77;;;11.90;99.90;;;;;;10267102;28;20062;-78
2022/11/04 17:24:37;;;;;;;5.10;1.60;;;11.90;99.90;;;;;;10253294;28;20814;-79
2022/11/04 17:29:42;;;;;;;2.85;0.90;;;11.80;99.90;;;;;;10277548;28;20141;-79
2022/11/04 17:34:44;;;;;;;2.22;0.80;;;11.90;99.90;;;;;;10266182;28;20066;-77
2022/11/04 17:39:46;;;;;;;2.33;0.90;;;11.80;99.90;;;;;;10293455;28;20042;-78
2022/11/04 17:44:49;;;;;;;2.40;0.80;;;11.80;99.90;;;;;;10287983;28;20054;-77
2022/11/04 17:49:51;;;;;;;2.33;0.80;;;11.80;99.90;;;;;;10266316;28;20054;-76
2022/11/04 17:54:53;;;;;;;2.78;1.10;;;11.80;99.90;;;;;;10287606;28;20067;-79
2022/11/04 17:59:56;;;;;;;5.53;3.30;;;11.70;99.90;;;;;;10294527;28;20055;-78
2022/11/04 18:05:00;;;;;;;6.05;3.00;;;11.60;99.90;;;;;;10276747;28;20082;-81
2022/11/04 18:10:02;;;;;;;2.75;0.93;;;11.60;99.90;;;;;;10260392;28;20066;-79
2022/11/04 18:15:08;;;;;;;2.30;0.90;;;11.40;99.90;;;;;;10259585;28;20117;-79
2022/11/04 18:20:14;;;;;;;3.53;0.90;;;11.40;99.90;;;;;;10266577;28;20055;-78
2022/11/04 18:25:16;;;;;;;5.57;1.25;;;11.30;99.90;;;;;;10252366;29;20489;-79
2022/11/04 18:30:19;;;;;;;5.93;3.30;;;11.30;99.90;;;;;;10253474;28;20519;-76
2022/11/04 18:35:21;;;;;;;5.13;2.60;;;11.30;99.90;;;;;;10250646;28;20119;-79
2022/11/04 18:40:24;;;;;;;5.57;2.90;;;11.30;99.90;;;;;;10253022;29;20513;-75
2022/11/04 18:45:27;;;;;;;5.85;3.00;;;11.30;99.90;;;;;;10263539;28;20050;-77
2022/11/04 18:50:30;;;;;;;6.55;3.47;;;11.40;99.90;;;;;;10256239;28;20079;-79
2022/11/04 18:55:33;;;;;;;5.30;2.70;;;11.40;99.90;;;;;;10259537;28;20477;-77
2022/11/04 19:00:38;;;;;;;5.55;2.75;;;11.40;99.90;;;;;;10265757;28;20104;-77
2022/11/04 19:05:41;;;;;;;9.35;4.28;;;11.40;99.90;;;;;;10257864;28;20055;-77
2022/11/04 19:10:43;;;;;;;7.22;3.42;;;11.40;99.90;;;;;;10230601;28;20142;-78
2022/11/04 19:15:47;;;;;;;5.55;2.97;;;11.40;99.90;;;;;;10263694;28;20138;-78
2022/11/04 19:20:49;;;;;;;8.43;4.20;;;11.40;99.90;;;;;;10269376;28;20054;-79
2022/11/04 19:25:51;;;;;;;8.75;3.60;;;11.40;99.90;;;;;;10285641;28;20075;-76
2022/11/04 19:31:04;;;;;;;7.82;3.10;;;11.30;99.90;;;;;;10290323;28;20051;-78
2022/11/04 19:36:09;;;;;;;5.88;3.30;;;11.40;99.90;;;;;;10253710;28;20050;-79
2022/11/04 19:46:32;;;;;;;7.93;3.85;;;11.40;99.90;;;;;;10282172;28;20401;-76
2022/11/04 19:51:35;;;;;;;6.70;3.75;;;11.30;99.90;;;;;;10250044;28;20142;-76
2022/11/04 19:56:37;;;;;;;5.50;3.50;;;11.10;99.90;;;;;;10259540;28;20105;-76
2022/11/04 20:01:41;;;;;;;6.50;3.40;;;11.00;99.90;;;;;;10264674;28;20054;-79
2022/11/04 20:06:43;;;;;;;6.18;3.28;;;10.90;99.90;;;;;;10285384;28;20055;-76
2022/11/04 20:17:07;;;;;;;8.32;4.30;;;11.00;99.90;;;;;;10272630;28;20055;-77
2022/11/04 20:22:09;;;;;;;9.02;4.30;;;11.00;99.90;;;;;;10249263;29;20047;-76
2022/11/04 20:27:13;;;;;;;6.57;4.38;;;11.10;99.90;;;;;;10261439;28;20050;-76
2022/11/04 20:32:17;;;;;;;7.70;4.43;;;11.10;99.90;;;;;;10269534;28;20054;-76
2022/11/04 20:37:19;;;;;;;7.68;4.30;;;11.10;99.90;;;;;;10255268;28;20105;-77
2022/11/04 20:42:20;;;;;;;8.00;4.25;;;11.20;99.90;;;;;;10269782;28;20051;-78
2022/11/04 20:47:24;;;;;;;10.55;4.55;;;11.10;99.90;;;;;;10254795;28;20134;-77
2022/11/04 20:52:26;;;;;;;8.23;4.72;;;11.10;99.90;;;;;;10251915;28;20054;-76
2022/11/04 20:57:28;;;;;;;8.32;4.90;;;11.00;99.90;;;;;;10266120;28;20069;-76
2022/11/04 21:02:31;;;;;;;8.32;4.90;;;11.00;99.90;;;;;;10282072;28;20488;-76
2022/11/04 21:07:35;;;;;;;8.43;3.80;;;10.90;99.90;;;;;;10271149;28;20074;-75
2022/11/04 21:12:37;;;;;;;10.50;4.10;;;10.90;99.90;;;;;;10280359;28;20054;-75
2022/11/04 21:17:40;;;;;;;9.60;4.35;;;10.90;99.90;;;;;;10280555;28;20133;-75
2022/11/04 21:22:42;;;;;;;7.55;4.90;;;10.90;99.90;;;;;;10263256;28;20548;-75
2022/11/04 21:27:44;;;;;;;10.25;5.28;;;10.90;99.90;;;;;;10249052;28;20086;-75
2022/11/04 21:32:52;;;;;;;9.68;4.80;;;10.90;99.90;;;;;;10247222;29;20053;-76
2022/11/04 21:37:54;;;;;;;8.63;4.65;;;11.00;99.90;;;;;;10253234;28;20047;-76
2022/11/04 21:42:56;;;;;;;11.00;6.57;;;10.90;99.90;;;;;;10271367;28;20772;-75
2022/11/04 21:47:59;;;;;;;9.15;4.60;;;10.90;99.90;;;;;;10285681;28;20054;-75
2022/11/04 21:53:01;;;;;;;8.60;5.10;;;10.80;99.90;;;;;;10256848;28;20110;-77
2022/11/04 21:58:03;;;;;;;7.32;4.43;;;10.90;99.90;;;;;;10266536;28;20097;-75
2022/11/04 22:03:06;;;;;;;7.15;4.78;;;10.90;99.90;;;;;;10286333;28;20098;-76
2022/11/04 22:08:17;;;;;;;7.65;4.80;;;10.80;99.90;;;;;;10274384;28;20079;-75
2022/11/04 22:13:19;;;;;;;9.23;5.05;;;10.80;99.90;;;;;;10286080;28;20055;-74
2022/11/04 22:18:22;;;;;;;8.27;5.32;;;10.70;99.90;;;;;;10256858;28;20090;-75
2022/11/04 22:23:27;;;;;;;10.88;6.10;;;10.80;99.90;;;;;;10252973;29;20059;-75
2022/11/04 22:28:30;;;;;;;9.38;6.68;;;10.80;99.90;;;;;;10252608;28;20075;-76
2022/11/04 22:33:33;;;;;;;12.00;6.60;;;10.70;99.90;;;;;;10286008;28;20043;-75
2022/11/04 22:38:37;;;;;;;14.07;7.53;;;10.60;99.90;;;;;;10296946;28;20126;-76
2022/11/04 22:43:39;;;;;;;12.00;6.88;;;10.50;99.90;;;;;;10267423;28;20055;-76
2022/11/04 22:48:42;;;;;;;10.57;6.70;;;10.60;99.90;;;;;;10257557;29;20106;-75
2022/11/04 22:53:45;;;;;;;13.15;7.15;;;10.50;99.90;;;;;;10257832;29;20078;-75
2022/11/04 22:58:47;;;;;;;10.45;6.35;;;10.50;99.90;;;;;;10287065;28;20465;-74
